Time;durP1;ratioP1;P1;durP2;ratioP2;P2;SDS_P1;SDS_P2;PMS_P1;PMS_P2;Temp;Humidity;BMP_temperature;BMP_pressure;BME280_temperature;BME280_humidity;BME280_pressure;Samples;Min_cycle;Max_cycle;Signal;HPM_P1;HPM_P2
2021/11/18 00:00:27;;;;;;;4.68;1.20;;;20.40;54.40;;;;;;5064626;28;20028;-63
2021/11/18 00:02:55;;;;;;;12.68;2.67;;;20.40;54.40;;;;;;5065147;28;20024;-64
2021/11/18 00:05:24;;;;;;;4.97;1.30;;;20.40;54.90;;;;;;5066881;28;20075;-63
2021/11/18 00:07:53;;;;;;;5.72;1.80;;;20.40;54.20;;;;;;5068450;28;20032;-64
2021/11/18 00:10:24;;;;;;;5.63;1.95;;;20.40;54.20;;;;;;5068526;28;20137;-63
2021/11/18 00:12:51;;;;;;;7.80;2.03;;;20.40;54.10;;;;;;5068867;28;20766;-64
2021/11/18 00:15:18;;;;;;;7.82;1.90;;;20.40;54.00;;;;;;5067783;28;20032;-63
2021/11/18 00:17:45;;;;;;;7.00;2.20;;;20.40;54.00;;;;;;5066665;28;20024;-63
2021/11/18 00:20:15;;;;;;;4.78;1.77;;;20.40;53.90;;;;;;5068657;28;20047;-64
2021/11/18 00:22:45;;;;;;;7.25;1.60;;;20.40;53.80;;;;;;5069188;28;20683;-64
2021/11/18 00:25:14;;;;;;;6.47;1.58;;;20.40;53.80;;;;;;5065257;28;20023;-63
2021/11/18 00:27:41;;;;;;;4.53;1.60;;;20.40;53.70;;;;;;5066481;28;20478;-63
2021/11/18 00:30:11;;;;;;;3.90;1.05;;;20.40;53.60;;;;;;5069265;28;20032;-63
2021/11/18 00:32:38;;;;;;;3.47;1.73;;;20.40;53.40;;;;;;5067168;28;20150;-64
2021/11/18 00:35:07;;;;;;;4.03;1.80;;;20.40;53.30;;;;;;5060723;28;20024;-63
2021/11/18 00:37:35;;;;;;;4.05;1.30;;;20.30;53.10;;;;;;5068495;28;20024;-64
2021/11/18 00:40:05;;;;;;;5.45;1.92;;;20.30;52.90;;;;;;5068056;28;20009;-64
2021/11/18 00:42:32;;;;;;;5.35;1.50;;;20.30;52.80;;;;;;5066492;28;20021;-63
2021/11/18 00:45:00;;;;;;;7.72;2.10;;;20.30;52.70;;;;;;5065802;28;20030;-64
2021/11/18 00:47:27;;;;;;;4.78;1.90;;;20.30;52.60;;;;;;5064772;28;20005;-63
2021/11/18 00:49:53;;;;;;;4.75;1.67;;;20.30;52.60;;;;;;5066620;28;20107;-64
2021/11/18 00:52:21;;;;;;;4.75;1.75;;;20.30;52.50;;;;;;5066897;28;20166;-63
2021/11/18 00:54:48;;;;;;;6.45;1.88;;;20.30;52.60;;;;;;5066761;28;20020;-64
2021/11/18 00:57:15;;;;;;;6.63;1.45;;;20.20;52.50;;;;;;5063481;28;20023;-64
2021/11/18 00:59:45;;;;;;;3.28;1.60;;;20.20;52.50;;;;;;5069078;28;20031;-63
2021/11/18 01:02:13;;;;;;;4.65;1.45;;;20.20;52.50;;;;;;5065814;28;20017;-63
2021/11/18 01:04:40;;;;;;;7.68;1.50;;;20.20;52.50;;;;;;5067516;28;20052;-63
2021/11/18 01:07:07;;;;;;;2.92;0.95;;;20.20;52.50;;;;;;5065946;28;20015;-63
2021/11/18 01:09:33;;;;;;;3.63;1.00;;;20.10;52.30;;;;;;5063302;28;20502;-63
2021/11/18 01:12:00;;;;;;;4.57;1.02;;;20.10;52.30;;;;;;5065321;28;20024;-63
2021/11/18 01:14:26;;;;;;;1.42;0.70;;;20.10;52.30;;;;;;5068587;28;20052;-64
2021/11/18 01:16:53;;;;;;;4.75;1.20;;;20.10;52.30;;;;;;5065911;28;20535;-63
2021/11/18 01:19:20;;;;;;;6.80;0.93;;;20.10;52.30;;;;;;5066872;28;20028;-67
2021/11/18 01:21:49;;;;;;;3.80;1.17;;;20.10;52.20;;;;;;5067669;28;20027;-64
2021/11/18 01:24:15;;;;;;;4.30;1.02;;;20.10;52.20;;;;;;5067719;28;20521;-64
2021/11/18 01:26:42;;;;;;;3.90;0.80;;;20.00;52.00;;;;;;5063274;28;20012;-63
2021/11/18 01:29:08;;;;;;;2.88;0.80;;;20.00;52.10;;;;;;5063768;28;20395;-64
2021/11/18 01:31:36;;;;;;;2.33;1.17;;;20.00;52.10;;;;;;5067729;28;20475;-65
2021/11/18 01:34:02;;;;;;;5.38;0.90;;;20.00;52.20;;;;;;5067087;28;20032;-63
2021/11/18 01:36:29;;;;;;;5.32;1.63;;;19.90;52.30;;;;;;5067780;28;20027;-63
2021/11/18 01:38:56;;;;;;;4.00;1.33;;;19.90;52.40;;;;;;5066603;28;20036;-64
2021/11/18 01:41:26;;;;;;;2.33;0.77;;;19.90;52.60;;;;;;5063713;28;20455;-63
2021/11/18 01:43:58;;;;;;;3.22;0.90;;;20.00;52.70;;;;;;5065547;28;20456;-64
2021/11/18 01:46:32;;;;;;;3.28;1.23;;;19.90;52.70;;;;;;5064189;28;20074;-63
2021/11/18 01:48:59;;;;;;;6.40;1.50;;;19.90;52.80;;;;;;5067711;28;20071;-63
2021/11/18 01:51:30;;;;;;;4.70;0.90;;;19.90;52.90;;;;;;5065030;28;20451;-64
2021/11/18 01:53:58;;;;;;;4.68;1.77;;;19.90;53.00;;;;;;5067854;28;20024;-65
2021/11/18 01:56:27;;;;;;;4.25;1.48;;;19.90;53.10;;;;;;5064240;28;20479;-63
2021/11/18 01:59:03;;;;;;;3.17;1.20;;;19.90;53.20;;;;;;5067701;28;20033;-63
2021/11/18 02:01:29;;;;;;;6.80;1.23;;;19.80;53.30;;;;;;5067572;28;20020;-63
2021/11/18 02:03:56;;;;;;;4.50;1.23;;;19.80;53.50;;;;;;5064620;28;20112;-64
2021/11/18 02:06:28;;;;;;;7.72;1.50;;;19.80;53.90;;;;;;5062322;28;20613;-65
2021/11/18 02:08:55;;;;;;;2.67;1.20;;;19.80;54.10;;;;;;5065690;28;20016;-63
2021/11/18 02:11:33;;;;;;;2.35;0.98;;;19.80;54.30;;;;;;5062418;28;20103;-63
2021/11/18 02:14:00;;;;;;;5.57;2.00;;;19.80;54.60;;;;;;5065007;28;20374;-63
2021/11/18 02:16:27;;;;;;;4.80;1.40;;;19.70;54.80;;;;;;5067719;28;20013;-63
2021/11/18 02:18:54;;;;;;;5.07;1.30;;;19.70;55.10;;;;;;5064821;28;20474;-63
2021/11/18 02:21:21;;;;;;;5.75;1.40;;;19.70;55.30;;;;;;5063384;28;21269;-63
2021/11/18 02:24:07;;;;;;;5.50;1.45;;;19.70;55.40;;;;;;5056920;28;20028;-69
2021/11/18 02:27:13;;;;;;;4.07;1.92;;;19.60;55.40;;;;;;5063242;28;20048;-63
2021/11/18 02:30:20;;;;;;;6.15;1.58;;;19.70;55.60;;;;;;5065090;28;20596;-66
2021/11/18 02:33:26;;;;;;;5.97;1.70;;;19.70;55.70;;;;;;5062483;28;20555;-64
2021/11/18 02:36:32;;;;;;;7.50;1.65;;;19.60;55.80;;;;;;5062458;28;20047;-68
2021/11/18 02:39:38;;;;;;;6.10;1.52;;;19.60;55.90;;;;;;5065322;28;20028;-63
2021/11/18 02:42:44;;;;;;;2.38;1.52;;;19.60;56.10;;;;;;5066844;28;20051;-64
2021/11/18 02:45:50;;;;;;;2.95;1.33;;;19.60;56.10;;;;;;5066443;28;20032;-64
2021/11/18 02:48:19;;;;;;;3.97;1.30;;;19.60;56.20;;;;;;5070098;28;20101;-63
2021/11/18 02:51:03;;;;;;;4.97;1.60;;;19.60;56.20;;;;;;5068891;28;20158;-63
2021/11/18 02:53:32;;;;;;;2.88;1.40;;;19.60;56.30;;;;;;5066801;28;20017;-64
2021/11/18 02:55:59;;;;;;;2.88;1.33;;;19.50;56.30;;;;;;5071814;28;20869;-64
2021/11/18 02:58:27;;;;;;;2.47;0.95;;;19.50;56.30;;;;;;5066878;28;20025;-63
2021/11/18 03:00:59;;;;;;;5.60;1.30;;;19.50;56.50;;;;;;5069993;28;20019;-63
2021/11/18 03:03:26;;;;;;;3.70;1.20;;;19.50;56.60;;;;;;5069161;28;20028;-63
2021/11/18 03:05:54;;;;;;;5.95;0.90;;;19.50;56.70;;;;;;5065931;28;20008;-63
2021/11/18 03:08:22;;;;;;;4.72;1.50;;;19.50;56.80;;;;;;5067708;28;20074;-64
2021/11/18 03:10:50;;;;;;;6.85;1.00;;;19.40;56.90;;;;;;5069882;28;20024;-63
2021/11/18 03:13:17;;;;;;;4.38;1.00;;;19.40;57.00;;;;;;5065403;28;20486;-63
2021/11/18 03:15:44;;;;;;;4.18;1.58;;;19.40;57.70;;;;;;5066577;28;20364;-63
2021/11/18 03:18:11;;;;;;;3.95;1.25;;;19.40;57.20;;;;;;5067828;28;20047;-65
2021/11/18 03:20:38;;;;;;;2.60;1.23;;;19.40;57.30;;;;;;5067096;28;20084;-63
2021/11/18 03:23:06;;;;;;;3.40;1.05;;;19.40;57.40;;;;;;5067096;28;20463;-64
2021/11/18 03:26:12;;;;;;;5.00;1.10;;;19.40;57.50;;;;;;5070800;28;20063;-64
2021/11/18 03:29:18;;;;;;;3.67;2.03;;;19.30;57.40;;;;;;5064091;28;20493;-64
2021/11/18 03:32:24;;;;;;;4.97;1.00;;;19.30;57.40;;;;;;5066982;28;20017;-65
2021/11/18 03:35:08;;;;;;;5.03;1.30;;;19.30;57.40;;;;;;5068651;28;20050;-63
2021/11/18 03:37:35;;;;;;;6.70;2.22;;;19.30;57.40;;;;;;5065859;28;20583;-65
2021/11/18 03:40:01;;;;;;;6.10;1.55;;;19.20;57.50;;;;;;5067955;28;20028;-64
2021/11/18 03:42:28;;;;;;;6.45;1.58;;;19.20;57.50;;;;;;5061417;28;20096;-64
2021/11/18 03:44:54;;;;;;;2.88;1.10;;;19.20;57.50;;;;;;5068516;28;20374;-63
2021/11/18 03:47:21;;;;;;;8.40;1.60;;;19.20;57.60;;;;;;5071607;28;20029;-64
2021/11/18 03:49:47;;;;;;;6.18;2.05;;;19.20;57.70;;;;;;5068888;28;20024;-65
2021/11/18 03:52:15;;;;;;;5.63;2.03;;;19.10;57.90;;;;;;5067656;28;20498;-62
2021/11/18 03:54:46;;;;;;;8.00;2.38;;;19.20;58.00;;;;;;5068450;28;20074;-65
2021/11/18 03:57:13;;;;;;;3.13;1.75;;;19.10;57.90;;;;;;5064820;28;20020;-62
2021/11/18 03:59:42;;;;;;;13.90;1.95;;;19.10;58.10;;;;;;5068214;28;20008;-65
2021/11/18 04:02:09;;;;;;;10.73;2.05;;;19.10;58.60;;;;;;5065885;28;20064;-67
2021/11/18 04:04:39;;;;;;;5.57;1.08;;;19.00;58.70;;;;;;5064951;28;20027;-66
2021/11/18 04:07:12;;;;;;;6.20;1.88;;;19.00;58.70;;;;;;5066697;28;20034;-68
2021/11/18 04:09:40;;;;;;;5.18;1.33;;;19.00;58.80;;;;;;5066493;28;20033;-65
2021/11/18 04:12:12;;;;;;;11.68;2.90;;;19.00;58.90;;;;;;5062642;28;20028;-63
2021/11/18 04:14:42;;;;;;;7.65;4.15;;;19.00;59.00;;;;;;5060901;28;20017;-65
2021/11/18 04:17:21;;;;;;;10.32;4.82;;;19.00;59.20;;;;;;5064190;28;20546;-64
2021/11/18 04:19:47;;;;;;;8.65;3.40;;;19.00;59.30;;;;;;5064669;28;20054;-65
2021/11/18 04:22:20;;;;;;;6.18;2.83;;;19.00;59.40;;;;;;5063694;28;20542;-65
2021/11/18 04:24:49;;;;;;;7.18;2.50;;;19.00;59.30;;;;;;5062462;28;20510;-69
2021/11/18 04:27:22;;;;;;;6.10;1.73;;;19.00;59.30;;;;;;5066564;28;20032;-66
2021/11/18 04:29:52;;;;;;;7.38;2.58;;;19.00;59.20;;;;;;5061569;28;20094;-71
2021/11/18 04:32:23;;;;;;;6.40;1.85;;;19.00;59.00;;;;;;5062519;28;20055;-63
2021/11/18 04:34:50;;;;;;;6.20;3.15;;;19.10;58.90;;;;;;5065671;28;20589;-66
2021/11/18 04:37:17;;;;;;;8.10;2.40;;;19.10;58.70;;;;;;5066296;28;20089;-67
2021/11/18 04:39:44;;;;;;;4.82;1.92;;;19.00;58.60;;;;;;5067967;28;20046;-63
2021/11/18 04:42:13;;;;;;;5.78;2.20;;;19.10;58.60;;;;;;5067436;28;20403;-68
2021/11/18 04:44:40;;;;;;;6.07;1.95;;;19.10;58.50;;;;;;5064096;28;20628;-68
2021/11/18 04:47:30;;;;;;;7.57;2.08;;;19.10;58.40;;;;;;5063429;28;21601;-69
2021/11/18 04:49:57;;;;;;;5.88;1.80;;;19.10;58.30;;;;;;5061932;28;20066;-66
2021/11/18 04:52:24;;;;;;;8.10;2.42;;;19.10;58.30;;;;;;5058205;28;20021;-64
2021/11/18 04:54:51;;;;;;;7.90;2.63;;;19.10;58.80;;;;;;5060441;28;20028;-63
2021/11/18 04:57:57;;;;;;;9.57;1.80;;;19.10;58.10;;;;;;5058484;28;20029;-63
2021/11/18 05:01:08;;;;;;;8.63;2.20;;;19.10;58.00;;;;;;5057331;28;21202;-69
2021/11/18 05:04:14;;;;;;;12.25;2.38;;;19.10;58.00;;;;;;5059696;28;20024;-64
2021/11/18 05:07:22;;;;;;;7.15;1.75;;;19.20;58.00;;;;;;5057013;28;20479;-63
2021/11/18 05:10:29;;;;;;;3.15;1.38;;;19.20;58.00;;;;;;5056328;28;20028;-68
2021/11/18 05:13:35;;;;;;;7.00;2.08;;;19.20;57.70;;;;;;5058174;28;20061;-64
2021/11/18 05:16:41;;;;;;;6.05;1.98;;;19.20;57.40;;;;;;5060062;28;20029;-67
2021/11/18 05:19:49;;;;;;;6.72;1.40;;;19.20;57.30;;;;;;5060436;28;20036;-63
2021/11/18 05:22:55;;;;;;;5.28;1.77;;;19.30;57.10;;;;;;5062862;28;20033;-70
2021/11/18 05:26:03;;;;;;;3.70;1.30;;;19.30;56.70;;;;;;5055569;28;20016;-64
2021/11/18 05:29:09;;;;;;;8.13;2.05;;;19.30;56.40;;;;;;5062543;28;20048;-69
2021/11/18 05:32:15;;;;;;;7.47;1.30;;;19.40;56.20;;;;;;5065911;28;20024;-65
2021/11/18 05:35:21;;;;;;;9.00;1.92;;;19.40;56.10;;;;;;5065148;28;20009;-65
2021/11/18 05:38:27;;;;;;;4.88;1.30;;;19.40;55.80;;;;;;5065688;28;20095;-65
2021/11/18 05:41:33;;;;;;;6.90;1.50;;;19.50;55.60;;;;;;5068865;28;20107;-68
2021/11/18 05:44:39;;;;;;;4.78;1.23;;;19.50;55.30;;;;;;5064951;28;20506;-65
2021/11/18 05:47:45;;;;;;;2.45;0.85;;;19.50;55.10;;;;;;5063143;28;20383;-64
2021/11/18 05:50:51;;;;;;;5.43;0.90;;;19.60;54.90;;;;;;5064395;28;20135;-64
2021/11/18 05:53:57;;;;;;;4.53;1.10;;;19.60;54.60;;;;;;5065776;28;20078;-63
2021/11/18 05:57:03;;;;;;;4.25;0.98;;;19.70;54.50;;;;;;5064550;28;20035;-63
2021/11/18 06:00:09;;;;;;;5.55;0.80;;;19.70;54.20;;;;;;5066838;28;20031;-62
2021/11/18 06:03:15;;;;;;;2.28;0.93;;;19.70;54.00;;;;;;5066885;28;20021;-65
2021/11/18 06:06:21;;;;;;;3.53;0.80;;;19.80;53.80;;;;;;5063357;28;20021;-66
2021/11/18 06:09:27;;;;;;;3.30;0.90;;;19.80;53.50;;;;;;5066206;28;20490;-64
2021/11/18 06:12:33;;;;;;;4.57;0.80;;;19.90;53.30;;;;;;5065080;28;20016;-62
2021/11/18 06:15:39;;;;;;;0.70;0.50;;;19.90;52.90;;;;;;5065975;28;20021;-67
2021/11/18 06:18:45;;;;;;;2.42;0.63;;;19.90;52.30;;;;;;5063600;28;20028;-64
2021/11/18 06:21:53;;;;;;;2.92;1.05;;;20.00;52.20;;;;;;5064269;28;20028;-64
2021/11/18 06:25:00;;;;;;;4.25;1.23;;;20.00;52.00;;;;;;5064316;28;20418;-63
2021/11/18 06:28:06;;;;;;;3.58;1.80;;;20.10;52.20;;;;;;5065834;28;20044;-65
2021/11/18 06:31:12;;;;;;;1.30;0.80;;;20.10;52.50;;;;;;5063204;28;20036;-64
2021/11/18 06:34:18;;;;;;;3.90;1.17;;;20.10;53.00;;;;;;5066518;28;20025;-65
2021/11/18 06:37:24;;;;;;;2.60;1.70;;;20.20;53.50;;;;;;5063427;28;20485;-63
2021/11/18 06:40:30;;;;;;;2.15;0.90;;;20.20;53.80;;;;;;5066690;28;20027;-64
2021/11/18 06:43:36;;;;;;;2.17;0.80;;;20.30;53.80;;;;;;5064163;28;20044;-62
2021/11/18 06:46:42;;;;;;;2.00;0.90;;;20.30;53.50;;;;;;5066990;28;20032;-67
2021/11/18 06:49:48;;;;;;;3.42;1.10;;;20.40;53.00;;;;;;5064664;28;20025;-67
2021/11/18 06:52:54;;;;;;;2.75;0.65;;;20.40;52.60;;;;;;5061997;28;20100;-66
2021/11/18 06:56:01;;;;;;;3.72;0.77;;;20.40;52.30;;;;;;5061295;28;20486;-64
2021/11/18 06:59:07;;;;;;;4.80;0.85;;;20.50;51.80;;;;;;5063849;28;20040;-63
2021/11/18 07:02:13;;;;;;;1.95;0.88;;;20.50;51.30;;;;;;5068540;28;20471;-64
2021/11/18 07:05:19;;;;;;;1.25;0.60;;;20.60;50.70;;;;;;5063441;28;20868;-63
2021/11/18 07:08:25;;;;;;;1.52;0.80;;;20.60;50.40;;;;;;5067123;28;20731;-63
2021/11/18 07:11:31;;;;;;;4.80;1.17;;;20.60;50.30;;;;;;5065061;28;20518;-63
2021/11/18 07:14:37;;;;;;;5.07;1.02;;;20.70;50.50;;;;;;5062293;28;20025;-63
2021/11/18 07:17:43;;;;;;;3.70;1.08;;;20.70;50.80;;;;;;5090994;28;20600;-63
2021/11/18 07:20:49;;;;;;;4.47;0.70;;;20.80;51.10;;;;;;5064160;28;20042;-63
2021/11/18 07:23:55;;;;;;;2.53;0.65;;;20.80;50.90;;;;;;5067220;28;20020;-68
2021/11/18 07:27:02;;;;;;;2.30;0.68;;;20.80;50.80;;;;;;5066657;28;20089;-65
2021/11/18 07:30:08;;;;;;;2.50;1.10;;;20.90;51.10;;;;;;5066410;28;20041;-65
2021/11/18 07:33:14;;;;;;;4.40;1.20;;;20.90;51.20;;;;;;5067718;28;20044;-65
2021/11/18 07:36:20;;;;;;;3.85;0.80;;;21.00;51.30;;;;;;5068129;28;20065;-65
2021/11/18 07:39:26;;;;;;;1.80;0.70;;;21.00;51.30;;;;;;5068902;28;20024;-65
2021/11/18 07:42:32;;;;;;;2.10;0.98;;;21.10;51.50;;;;;;5071689;28;20563;-65
2021/11/18 07:45:38;;;;;;;1.50;0.73;;;21.10;51.50;;;;;;5067650;28;20046;-68
2021/11/18 07:48:44;;;;;;;1.40;0.75;;;21.20;51.50;;;;;;5063535;28;20051;-66
2021/11/18 07:51:50;;;;;;;2.75;0.70;;;21.20;51.40;;;;;;5067350;28;20033;-65
2021/11/18 07:54:56;;;;;;;6.45;1.58;;;21.30;51.30;;;;;;5065166;28;20017;-65
2021/11/18 07:58:02;;;;;;;3.00;0.90;;;21.30;51.10;;;;;;5066797;28;20017;-65
2021/11/18 08:01:08;;;;;;;1.30;0.77;;;21.30;50.70;;;;;;5069508;28;20052;-65
2021/11/18 08:04:14;;;;;;;0.95;0.80;;;21.40;50.50;;;;;;5071140;28;20036;-66
2021/11/18 08:07:20;;;;;;;5.28;1.38;;;21.40;50.50;;;;;;5067529;28;20047;-70
2021/11/18 08:10:27;;;;;;;3.22;0.82;;;21.50;50.50;;;;;;5067780;28;20502;-63
2021/11/18 08:13:33;;;;;;;2.78;0.60;;;21.50;50.50;;;;;;5066159;28;20032;-65
2021/11/18 08:16:40;;;;;;;2.03;0.90;;;21.60;50.50;;;;;;5069657;28;20020;-66
2021/11/18 08:19:46;;;;;;;2.70;0.73;;;21.60;50.60;;;;;;5067982;28;20063;-66
2021/11/18 08:22:52;;;;;;;3.28;0.70;;;21.70;50.50;;;;;;5065699;28;20025;-66
2021/11/18 08:25:58;;;;;;;3.78;0.70;;;21.70;50.10;;;;;;5068198;28;20016;-66
2021/11/18 08:29:04;;;;;;;3.20;0.88;;;21.80;49.80;;;;;;5068437;28;20091;-66
2021/11/18 08:32:10;;;;;;;3.67;1.05;;;21.80;49.50;;;;;;5063690;28;20008;-65
2021/11/18 08:35:16;;;;;;;2.75;0.85;;;21.90;49.40;;;;;;5066309;28;20017;-64
2021/11/18 08:38:26;;;;;;;3.03;0.70;;;21.90;49.00;;;;;;5068157;28;20059;-65
2021/11/18 08:41:32;;;;;;;5.57;0.70;;;22.00;48.50;;;;;;5069111;28;20017;-66
2021/11/18 08:44:38;;;;;;;1.98;1.02;;;22.00;48.10;;;;;;5066397;28;20395;-65
2021/11/18 08:47:44;;;;;;;5.53;1.00;;;22.00;48.00;;;;;;5067420;28;20020;-69
2021/11/18 08:50:53;;;;;;;2.47;1.70;;;22.10;47.90;;;;;;5065613;28;20158;-72
2021/11/18 08:53:59;;;;;;;2.35;0.57;;;22.10;47.40;;;;;;5064215;28;20025;-67
2021/11/18 08:57:05;;;;;;;1.13;1.00;;;22.20;47.30;;;;;;5065370;28;20021;-65
2021/11/18 09:00:12;;;;;;;3.58;0.70;;;22.20;47.10;;;;;;5067671;28;20537;-65
2021/11/18 09:03:18;;;;;;;4.18;1.85;;;22.20;46.60;;;;;;5067869;28;20062;-68
2021/11/18 09:06:24;;;;;;;3.97;0.73;;;22.30;46.50;;;;;;5068309;28;20048;-67
2021/11/18 09:09:30;;;;;;;1.35;0.77;;;22.40;46.50;;;;;;5064287;28;20436;-66
2021/11/18 09:12:36;;;;;;;2.60;1.15;;;22.40;46.40;;;;;;5067728;28;20028;-65
2021/11/18 09:15:42;;;;;;;1.35;0.80;;;22.50;46.40;;;;;;5063931;28;20035;-65
2021/11/18 09:18:48;;;;;;;2.47;0.75;;;22.50;46.10;;;;;;5064832;28;20130;-65
2021/11/18 09:21:54;;;;;;;3.05;0.75;;;22.60;46.10;;;;;;5064902;28;20406;-68
2021/11/18 09:25:03;;;;;;;2.47;0.82;;;22.70;46.00;;;;;;5064376;28;20029;-69
2021/11/18 09:28:15;;;;;;;4.28;1.15;;;22.80;46.30;;;;;;5065978;28;20035;-68
2021/11/18 09:31:22;;;;;;;1.38;0.80;;;22.80;45.80;;;;;;5065472;28;20365;-65
2021/11/18 09:34:28;;;;;;;4.93;0.60;;;22.90;45.80;;;;;;5065170;28;20024;-66
2021/11/18 09:37:34;;;;;;;3.75;0.98;;;22.90;45.50;;;;;;5065906;28;20027;-70
2021/11/18 09:40:40;;;;;;;5.45;1.15;;;23.00;45.80;;;;;;5064418;28;20488;-65
2021/11/18 09:43:29;;;;;;;2.38;0.80;;;23.00;45.60;;;;;;5068561;28;20052;-65
2021/11/18 09:46:34;;;;;;;2.45;1.00;;;23.00;45.50;;;;;;5065932;28;20436;-65
2021/11/18 09:49:13;;;;;;;2.72;0.75;;;23.10;45.40;;;;;;5065032;28;20640;-65
2021/11/18 09:51:54;;;;;;;3.67;1.00;;;23.10;45.00;;;;;;5064328;28;20099;-66
2021/11/18 09:54:44;;;;;;;2.70;0.60;;;23.20;45.10;;;;;;5067720;28;20028;-70
2021/11/18 09:57:25;;;;;;;3.30;0.60;;;23.20;44.50;;;;;;5064567;28;20052;-64
2021/11/18 10:00:30;;;;;;;2.95;0.85;;;23.30;44.50;;;;;;5064386;28;20865;-68
2021/11/18 10:03:22;;;;;;;3.08;0.60;;;23.30;44.50;;;;;;5064156;28;20029;-67
2021/11/18 10:06:43;;;;;;;2.45;0.90;;;23.40;44.40;;;;;;5065818;28;20073;-67
2021/11/18 10:09:39;;;;;;;2.33;1.15;;;23.40;44.20;;;;;;5066378;28;20035;-66
2021/11/18 10:12:47;;;;;;;1.25;0.60;;;23.50;44.10;;;;;;5067719;28;20032;-65
2021/11/18 10:15:55;;;;;;;2.75;0.80;;;23.50;43.90;;;;;;5065641;28;20515;-65
2021/11/18 10:18:42;;;;;;;2.97;0.60;;;23.50;43.80;;;;;;5065295;28;20437;-66
2021/11/18 10:21:51;;;;;;;5.15;1.27;;;23.60;43.60;;;;;;5066620;28;20382;-65
2021/11/18 10:24:57;;;;;;;1.55;1.23;;;23.60;43.50;;;;;;5065738;28;20055;-65
2021/11/18 10:28:09;;;;;;;4.53;1.40;;;23.70;43.40;;;;;;5065177;28;20022;-65
2021/11/18 10:31:24;;;;;;;1.92;1.00;;;23.70;43.30;;;;;;5069843;28;20071;-65
2021/11/18 10:34:30;;;;;;;2.63;1.13;;;23.80;43.10;;;;;;5065749;28;20031;-65
2021/11/18 10:37:39;;;;;;;2.88;0.60;;;23.80;43.20;;;;;;5065490;28;20024;-65
2021/11/18 10:40:44;;;;;;;3.83;1.08;;;23.90;43.10;;;;;;5065196;28;20036;-65
2021/11/18 10:43:50;;;;;;;3.13;0.70;;;23.90;42.70;;;;;;5064714;28;20042;-66
2021/11/18 10:46:20;;;;;;;2.35;0.80;;;24.00;42.70;;;;;;5063671;28;20059;-66
2021/11/18 10:49:26;;;;;;;2.78;0.82;;;24.00;42.90;;;;;;5066708;28;20023;-67
2021/11/18 10:52:38;;;;;;;7.25;0.77;;;24.10;42.90;;;;;;5063567;28;20107;-65
2021/11/18 10:55:44;;;;;;;1.58;0.57;;;24.10;42.50;;;;;;5062994;28;20032;-66
2021/11/18 10:58:25;;;;;;;2.88;0.70;;;24.10;42.70;;;;;;5064273;28;20509;-67
2021/11/18 11:01:35;;;;;;;3.47;1.02;;;24.30;42.80;;;;;;5067462;28;20020;-67
2021/11/18 11:04:59;;;;;;;3.60;0.65;;;24.30;42.50;;;;;;5067165;28;20119;-68
2021/11/18 11:08:17;;;;;;;2.72;0.50;;;24.30;42.50;;;;;;5068379;28;20108;-67
2021/11/18 11:11:24;;;;;;;3.25;0.80;;;24.40;42.40;;;;;;5069939;28;20474;-70
2021/11/18 11:14:41;;;;;;;3.72;0.80;;;24.30;42.10;;;;;;5069624;28;20058;-66
2021/11/18 11:17:43;;;;;;;3.38;0.57;;;24.40;41.80;;;;;;5009206;28;20037;-65
2021/11/18 11:20:34;;;;;;;3.28;0.85;;;24.40;41.80;;;;;;5066068;28;20219;-65
2021/11/18 11:23:33;;;;;;;1.80;0.80;;;24.50;41.70;;;;;;5066722;28;20016;-69
2021/11/18 11:26:18;;;;;;;3.80;1.15;;;24.50;41.90;;;;;;5070218;28;20028;-65
2021/11/18 11:28:52;;;;;;;5.13;0.50;;;24.60;41.70;;;;;;5065886;28;20111;-69
2021/11/18 11:31:44;;;;;;;4.97;0.80;;;24.60;41.50;;;;;;5067230;28;20021;-66
2021/11/18 11:34:16;;;;;;;0.75;0.50;;;24.60;41.20;;;;;;5066044;28;20475;-68
2021/11/18 11:36:48;;;;;;;2.22;0.85;;;24.60;41.70;;;;;;5068862;28;21480;-66
2021/11/18 11:39:41;;;;;;;3.17;0.98;;;24.70;41.00;;;;;;5071871;28;20502;-65
2021/11/18 11:42:32;;;;;;;2.40;0.52;;;24.70;40.80;;;;;;5067899;28;20028;-66
2021/11/18 11:45:10;;;;;;;3.40;0.88;;;24.70;40.80;;;;;;5067799;28;20048;-66
2021/11/18 11:47:49;;;;;;;2.28;1.02;;;24.70;41.10;;;;;;5070448;28;20021;-67
2021/11/18 11:50:41;;;;;;;1.40;0.95;;;24.70;41.10;;;;;;5066844;28;20108;-66
2021/11/18 11:53:38;;;;;;;1.00;0.60;;;24.70;40.90;;;;;;5070550;28;20062;-70
2021/11/18 11:56:12;;;;;;;3.03;1.02;;;24.80;41.10;;;;;;5067559;28;20032;-68
2021/11/18 11:58:51;;;;;;;2.67;0.70;;;24.80;40.90;;;;;;5067542;28;20036;-66
2021/11/18 12:01:49;;;;;;;3.30;0.90;;;24.80;40.80;;;;;;5072273;28;20699;-67
2021/11/18 12:04:41;;;;;;;1.90;1.00;;;24.80;40.90;;;;;;5066447;28;20021;-65
2021/11/18 12:07:25;;;;;;;2.08;0.55;;;24.90;41.00;;;;;;5067837;28;20097;-66
2021/11/18 12:10:24;;;;;;;4.05;0.80;;;24.90;41.20;;;;;;5067661;28;20027;-66
2021/11/18 12:13:02;;;;;;;3.28;1.00;;;24.90;40.90;;;;;;5070229;28;20020;-68
2021/11/18 12:15:29;;;;;;;3.03;1.00;;;25.00;40.90;;;;;;5067509;28;20414;-66
2021/11/18 12:18:39;;;;;;;3.67;0.75;;;25.00;41.00;;;;;;5067914;28;20028;-66
2021/11/18 12:21:06;;;;;;;0.70;0.50;;;25.00;41.00;;;;;;5066564;28;21381;-66
2021/11/18 12:24:10;;;;;;;2.00;0.65;;;25.00;40.60;;;;;;5069653;28;20029;-66
2021/11/18 12:26:48;;;;;;;5.60;1.10;;;25.00;40.30;;;;;;5069568;28;20031;-66
2021/11/18 12:29:21;;;;;;;2.72;0.75;;;25.00;40.00;;;;;;5066546;28;20045;-66
2021/11/18 12:32:09;;;;;;;2.25;0.98;;;25.10;39.90;;;;;;5067770;28;20024;-71
2021/11/18 12:34:54;;;;;;;4.80;0.93;;;25.10;40.10;;;;;;5066601;28;20074;-65
2021/11/18 12:37:55;;;;;;;2.88;0.88;;;25.10;40.20;;;;;;5064834;28;20001;-65
2021/11/18 12:40:28;;;;;;;3.60;0.82;;;25.20;40.30;;;;;;5066246;28;20111;-66
2021/11/18 12:43:16;;;;;;;2.30;0.70;;;25.20;40.50;;;;;;5067507;28;20059;-65
2021/11/18 12:45:43;;;;;;;2.30;0.70;;;25.20;40.40;;;;;;5067753;28;20016;-66
2021/11/18 12:48:43;;;;;;;1.48;0.57;;;25.20;40.30;;;;;;5066679;28;20029;-65
2021/11/18 12:51:20;;;;;;;6.00;0.65;;;25.20;40.40;;;;;;5063660;28;20041;-66
2021/11/18 12:54:17;;;;;;;2.40;0.90;;;25.20;40.40;;;;;;5067311;28;20028;-65
2021/11/18 12:56:53;;;;;;;2.13;0.63;;;25.20;40.40;;;;;;5063558;28;20039;-67
2021/11/18 12:59:46;;;;;;;2.97;0.80;;;25.20;40.30;;;;;;5077947;28;20029;-65
2021/11/18 13:02:28;;;;;;;3.53;0.95;;;25.20;40.10;;;;;;5067435;28;20024;-65
2021/11/18 13:05:03;;;;;;;3.28;0.80;;;25.20;40.20;;;;;;5069434;28;20051;-67
2021/11/18 13:07:41;;;;;;;2.13;0.88;;;25.20;40.00;;;;;;5068326;28;20016;-66
2021/11/18 13:10:19;;;;;;;4.35;1.17;;;25.20;40.20;;;;;;5065910;28;20406;-65
2021/11/18 13:13:07;;;;;;;2.10;0.75;;;25.20;40.10;;;;;;5065937;28;20119;-68
2021/11/18 13:15:42;;;;;;;1.83;1.33;;;25.20;39.50;;;;;;5063524;28;20107;-68
2021/11/18 13:18:27;;;;;;;3.55;0.80;;;25.20;39.20;;;;;;5066514;28;20024;-66
2021/11/18 13:21:20;;;;;;;3.53;1.17;;;25.20;38.90;;;;;;5066599;28;20032;-65
2021/11/18 13:23:52;;;;;;;2.40;0.88;;;25.20;38.80;;;;;;5063077;28;20027;-67
2021/11/18 13:26:35;;;;;;;3.70;0.70;;;25.20;38.80;;;;;;5067600;28;20023;-66
2021/11/18 13:29:16;;;;;;;0.90;0.50;;;25.20;39.00;;;;;;5063446;28;20040;-66
2021/11/18 13:31:49;;;;;;;2.40;0.73;;;25.20;39.40;;;;;;5063404;28;20087;-66
2021/11/18 13:34:26;;;;;;;4.47;1.02;;;25.20;39.70;;;;;;5062781;28;20052;-68
2021/11/18 13:37:14;;;;;;;4.68;0.80;;;25.10;39.70;;;;;;5069339;28;20022;-66
2021/11/18 13:40:12;;;;;;;2.63;0.52;;;25.10;39.80;;;;;;5063940;28;20119;-68
2021/11/18 13:42:45;;;;;;;3.95;1.52;;;25.20;39.80;;;;;;5053245;28;20033;-66
2021/11/18 13:45:28;;;;;;;3.25;0.70;;;25.20;39.50;;;;;;5066946;28;20345;-69
2021/11/18 13:48:09;;;;;;;2.17;0.77;;;25.10;39.60;;;;;;5067767;28;20043;-66
2021/11/18 13:50:58;;;;;;;4.57;0.60;;;25.10;39.50;;;;;;5063271;28;20025;-65
2021/11/18 13:53:38;;;;;;;3.38;0.70;;;25.10;39.80;;;;;;5061529;28;20091;-66
2021/11/18 13:56:25;;;;;;;1.48;0.60;;;25.10;40.10;;;;;;5065191;28;20021;-69
2021/11/18 13:58:56;;;;;;;3.67;0.80;;;25.10;40.30;;;;;;5068270;28;20044;-65
2021/11/18 14:01:37;;;;;;;5.45;1.23;;;25.00;40.20;;;;;;5064521;28;20028;-68
2021/11/18 14:04:13;;;;;;;4.60;1.90;;;25.00;40.10;;;;;;5065394;28;20020;-66
2021/11/18 14:06:52;;;;;;;3.78;0.68;;;25.00;40.50;;;;;;5066306;28;20029;-65
2021/11/18 14:09:39;;;;;;;2.70;0.50;;;25.00;40.60;;;;;;5060439;28;20025;-66
2021/11/18 14:12:27;;;;;;;2.45;0.65;;;25.00;40.30;;;;;;5066750;28;20129;-66
2021/11/18 14:15:35;;;;;;;2.97;0.75;;;25.00;40.20;;;;;;5064628;28;20411;-65
2021/11/18 14:18:16;;;;;;;4.55;1.00;;;25.00;40.30;;;;;;5033809;28;20076;-67
2021/11/18 14:21:01;;;;;;;4.22;0.73;;;25.00;40.40;;;;;;5066992;28;20044;-65
2021/11/18 14:23:39;;;;;;;2.92;0.68;;;25.00;40.60;;;;;;5065553;28;20055;-65
2021/11/18 14:26:24;;;;;;;0.98;0.57;;;24.90;40.60;;;;;;5062032;28;20478;-66
2021/11/18 14:28:59;;;;;;;3.03;1.20;;;24.90;40.30;;;;;;5065519;28;20060;-65
2021/11/18 14:31:35;;;;;;;2.08;0.65;;;24.90;40.20;;;;;;5080669;28;20032;-65